Paisley, Florida
Current Conditions -  °F | °C
As of 4:55 PM on Saturday 25 Oct 2014 (Local Time) from KDED Reporting Station
Few Clouds Few Clouds  
Wind Chill: 77°   Ceiling: Unl
Heat Index: 79°   Visibility: 10mi
Dew Point: 57°   Wind: 9mph
Humidity: 50%   Direction: 40°NE
Pressure: 29.95"   Gusts: NA
Location:  28.98°N, 81.54°W
Report Text: KDED 252055Z AUTO 04008KT 10SM FEW049 25/14 A2995 RMK AO1
Loading
Personal Weather Stations






























Interactive Weather Map
Tropical Storm Tracking
New forecast layout! Learn more

10-Day Weather Forecast

Advertisements
Track Severe Weather on mobile